Time;durP1;ratioP1;P1;durP2;ratioP2;P2;SDS_P1;SDS_P2;PMS_P1;PMS_P2;Temp;Humidity;BMP_temperature;BMP_pressure;BME280_temperature;BME280_humidity;BME280_pressure;Samples;Min_cycle;Max_cycle;Signal;HPM_P1;HPM_P2
2021/10/29 00:00:23;;;;;;;66.80;36.03;;;;;;;3.99;100.00;101123.19;5113232;28;20047;-75
2021/10/29 00:02:56;;;;;;;57.25;33.10;;;;;;;3.97;100.00;101131.13;5113438;28;20040;-75
2021/10/29 00:05:26;;;;;;;60.75;36.25;;;;;;;3.95;100.00;101130.25;5112869;28;20043;-76
2021/10/29 00:07:54;;;;;;;62.28;36.00;;;;;;;3.91;100.00;101122.44;5113446;28;20051;-75
2021/10/29 00:10:22;;;;;;;60.88;36.35;;;;;;;3.91;100.00;101125.97;5111825;28;20060;-75
2021/10/29 00:12:51;;;;;;;60.38;35.67;;;;;;;3.80;100.00;101124.44;5113223;28;20044;-75
2021/10/29 00:15:20;;;;;;;58.92;34.65;;;;;;;3.65;100.00;101118.50;5113172;28;20048;-76
2021/10/29 00:17:49;;;;;;;58.83;35.35;;;;;;;3.66;100.00;101129.94;5113346;28;20050;-75
2021/10/29 00:20:18;;;;;;;62.45;34.75;;;;;;;3.66;100.00;101129.94;5113345;28;20044;-74
2021/10/29 00:22:47;;;;;;;59.65;35.90;;;;;;;3.75;100.00;101124.50;5113294;28;20069;-75
2021/10/29 00:25:16;;;;;;;57.85;34.38;;;;;;;3.80;100.00;101127.06;5113010;28;20051;-75
2021/10/29 00:27:45;;;;;;;60.15;33.80;;;;;;;3.82;100.00;101131.41;5113212;28;20046;-75
2021/10/29 00:30:13;;;;;;;61.03;35.10;;;;;;;3.82;100.00;101126.13;5113282;28;20043;-75
2021/10/29 00:32:42;;;;;;;58.45;33.78;;;;;;;3.90;100.00;101123.34;5112940;28;20481;-75
2021/10/29 00:35:10;;;;;;;60.55;33.50;;;;;;;3.85;100.00;101115.50;5113235;28;20097;-75
2021/10/29 00:37:40;;;;;;;58.95;34.05;;;;;;;3.76;100.00;101115.69;5111824;28;20075;-75
2021/10/29 00:40:12;;;;;;;56.45;34.35;;;;;;;3.71;100.00;101118.41;5113179;28;20059;-75
2021/10/29 00:42:42;;;;;;;58.70;32.87;;;;;;;3.76;100.00;101115.69;5112673;28;20050;-75
2021/10/29 00:45:11;;;;;;;53.45;31.80;;;;;;;3.83;100.00;101104.13;5112903;28;20044;-75
2021/10/29 00:47:40;;;;;;;59.20;33.55;;;;;;;3.64;100.00;101111.50;5112377;28;20071;-73
2021/10/29 00:50:11;;;;;;;52.72;30.98;;;;;;;3.60;100.00;101109.81;5112768;28;20456;-70
2021/10/29 00:52:39;;;;;;;53.13;32.25;;;;;;;3.78;100.00;101103.34;5112754;28;20040;-72
2021/10/29 00:55:10;;;;;;;55.33;33.58;;;;;;;3.73;100.00;101108.69;5112754;28;20135;-72
2021/10/29 00:57:40;;;;;;;53.53;31.40;;;;;;;3.58;100.00;101109.00;5112789;28;20042;-72
2021/10/29 01:00:10;;;;;;;51.95;31.98;;;;;;;3.60;100.00;101101.91;5113025;28;20044;-74
2021/10/29 01:02:38;;;;;;;58.47;33.75;;;;;;;3.61;100.00;101102.78;5112978;28;20043;-74
2021/10/29 01:05:08;;;;;;;55.95;33.20;;;;;;;3.39;100.00;101102.28;5112964;28;20118;-74
2021/10/29 01:07:36;;;;;;;59.10;32.95;;;;;;;3.42;100.00;101104.88;5111240;28;20055;-74
2021/10/29 01:10:05;;;;;;;56.22;33.53;;;;;;;3.32;100.00;101098.88;5115558;28;20484;-75
2021/10/29 01:12:35;;;;;;;58.08;32.38;;;;;;;3.31;100.00;101099.78;5116224;28;20126;-75
2021/10/29 01:15:07;;;;;;;53.03;31.60;;;;;;;3.45;100.00;101100.41;5116767;28;20042;-75
2021/10/29 01:17:36;;;;;;;54.80;32.63;;;;;;;3.44;100.00;101098.66;5116107;28;20050;-75
2021/10/29 01:20:05;;;;;;;57.78;32.95;;;;;;;3.47;100.00;101102.13;5116312;28;20408;-76
2021/10/29 01:22:35;;;;;;;59.78;32.30;;;;;;;3.43;100.00;101096.94;5116582;28;20039;-76
2021/10/29 01:25:04;;;;;;;57.50;32.13;;;;;;;3.49;100.00;101090.69;5116340;28;20096;-75
2021/10/29 01:27:32;;;;;;;50.25;32.15;;;;;;;3.54;100.00;101093.22;5115904;28;20039;-76
2021/10/29 01:30:04;;;;;;;47.47;29.98;;;;;;;3.43;100.00;101090.78;5116261;28;20452;-75
2021/10/29 01:32:33;;;;;;;55.40;32.60;;;;;;;3.44;100.00;101092.53;5115504;28;20522;-75
2021/10/29 01:35:02;;;;;;;56.33;30.60;;;;;;;3.43;100.00;101086.38;5115802;28;20047;-75
2021/10/29 01:37:30;;;;;;;55.63;31.40;;;;;;;3.49;100.00;101095.09;5115678;28;20067;-75
2021/10/29 01:40:00;;;;;;;53.65;31.23;;;;;;;3.41;100.00;101087.31;5115883;28;20039;-72
2021/10/29 01:42:28;;;;;;;56.45;31.77;;;;;;;3.42;100.00;101089.91;5115324;28;20051;-73
2021/10/29 01:44:56;;;;;;;52.22;31.67;;;;;;;3.53;100.00;101078.31;5115843;28;20447;-72
2021/10/29 01:47:24;;;;;;;55.17;30.52;;;;;;;3.53;100.00;101080.94;5115467;28;20036;-76
2021/10/29 01:49:53;;;;;;;51.00;31.65;;;;;;;3.62;100.00;101086.03;5115533;28;20039;-73
2021/10/29 01:52:21;;;;;;;50.65;30.55;;;;;;;3.65;100.00;101075.44;5115764;28;20099;-73
2021/10/29 01:54:50;;;;;;;47.50;27.52;;;;;;;3.59;100.00;101072.94;5115184;28;20088;-73
2021/10/29 01:57:19;;;;;;;56.95;31.88;;;;;;;3.51;100.00;101080.97;5115393;28;20039;-73
2021/10/29 01:59:48;;;;;;;51.60;31.20;;;;;;;3.49;100.00;101079.25;5114978;28;20481;-75
2021/10/29 02:02:17;;;;;;;51.30;30.38;;;;;;;3.54;100.00;101072.13;5115281;28;20066;-75
2021/10/29 02:04:45;;;;;;;49.90;30.25;;;;;;;3.51;100.00;101072.19;5115199;28;20049;-75
2021/10/29 02:07:13;;;;;;;52.50;30.35;;;;;;;3.43;100.00;101067.03;5115241;28;20073;-74
2021/10/29 02:09:41;;;;;;;53.25;30.40;;;;;;;3.41;100.00;101071.47;5115425;28;20048;-75
2021/10/29 02:12:10;;;;;;;53.50;29.77;;;;;;;3.32;100.00;101072.50;5115615;28;20078;-76
2021/10/29 02:14:40;;;;;;;54.50;29.98;;;;;;;3.63;100.00;101077.22;5115150;28;20075;-76
2021/10/29 02:17:08;;;;;;;53.55;30.35;;;;;;;3.46;100.00;101072.25;5115306;28;20046;-77
2021/10/29 02:19:36;;;;;;;47.05;29.25;;;;;;;3.41;100.00;101077.63;5114455;28;20044;-75
2021/10/29 02:22:05;;;;;;;47.10;29.15;;;;;;;3.44;100.00;101072.28;5114935;28;20044;-75
2021/10/29 02:24:34;;;;;;;46.63;28.92;;;;;;;3.61;100.00;101069.34;5114835;28;20412;-75
2021/10/29 02:27:03;;;;;;;45.58;28.05;;;;;;;3.50;100.00;101066.03;5115176;28;20044;-75
2021/10/29 02:29:32;;;;;;;50.95;27.80;;;;;;;3.51;100.00;101066.91;5114681;28;20050;-75
2021/10/29 02:32:01;;;;;;;52.10;30.38;;;;;;;3.41;100.00;101063.56;5114889;28;20147;-75
2021/10/29 02:34:30;;;;;;;48.65;28.30;;;;;;;3.49;100.00;101068.72;5114612;28;20047;-76
2021/10/29 02:36:58;;;;;;;50.28;29.35;;;;;;;3.36;100.00;101068.03;5114799;28;20396;-75
2021/10/29 02:39:26;;;;;;;50.67;29.85;;;;;;;3.34;100.00;101062.81;5114442;28;20062;-75
2021/10/29 02:41:54;;;;;;;50.38;29.67;;;;;;;3.34;100.00;101060.16;5113685;28;20058;-76
2021/10/29 02:44:22;;;;;;;52.83;29.63;;;;;;;3.11;100.00;101059.69;5114651;28;20056;-75
2021/10/29 02:46:50;;;;;;;52.58;30.35;;;;;;;3.07;100.00;101053.59;5114430;28;20468;-77
2021/10/29 02:49:20;;;;;;;50.50;28.85;;;;;;;3.05;100.00;101063.28;5114629;28;20048;-77
2021/10/29 02:51:48;;;;;;;50.97;29.85;;;;;;;3.03;100.00;101057.19;5114035;28;20112;-77
2021/10/29 02:54:16;;;;;;;53.25;30.20;;;;;;;3.08;100.00;101060.59;5114275;28;20127;-77
2021/10/29 02:56:45;;;;;;;52.80;29.20;;;;;;;3.03;100.00;101056.31;5114469;28;20044;-77
2021/10/29 02:59:13;;;;;;;55.20;30.23;;;;;;;2.98;100.00;101060.78;5114511;28;20373;-77
2021/10/29 03:01:42;;;;;;;50.17;29.40;;;;;;;2.92;100.00;101060.91;5114081;28;20496;-77
2021/10/29 03:04:10;;;;;;;53.45;30.45;;;;;;;2.95;100.00;101058.19;5114047;28;20043;-76
2021/10/29 03:06:41;;;;;;;51.08;29.98;;;;;;;2.96;100.00;101052.91;5114017;28;20110;-76
2021/10/29 03:09:09;;;;;;;49.25;30.45;;;;;;;3.01;100.00;101050.22;5114069;28;20044;-76
2021/10/29 03:11:37;;;;;;;50.35;29.63;;;;;;;3.02;100.00;101046.69;5113935;28;20040;-76
2021/10/29 03:14:06;;;;;;;57.47;30.15;;;;;;;2.97;100.00;101048.50;5113890;28;20125;-76
2021/10/29 03:16:34;;;;;;;50.78;30.90;;;;;;;2.76;100.00;101053.22;5113942;28;20087;-76
2021/10/29 03:19:02;;;;;;;54.67;31.02;;;;;;;2.74;100.00;101047.09;5114346;28;20040;-76
2021/10/29 03:21:31;;;;;;;52.75;29.75;;;;;;;2.78;100.00;101054.06;5113837;28;20043;-79
2021/10/29 03:24:02;;;;;;;53.05;29.58;;;;;;;2.71;100.00;101047.16;5114004;28;20042;-76
2021/10/29 03:26:31;;;;;;;53.53;32.20;;;;;;;2.75;100.00;101053.25;5113903;28;20048;-83
2021/10/29 03:28:59;;;;;;;50.72;30.55;;;;;;;2.76;100.00;101054.97;5113682;28;20378;-79
2021/10/29 03:31:27;;;;;;;51.85;30.63;;;;;;;2.79;100.00;101049.66;5113367;28;20040;-79
2021/10/29 03:33:56;;;;;;;50.20;29.65;;;;;;;2.92;100.00;101040.69;5113265;28;20043;-78
2021/10/29 03:36:24;;;;;;;51.22;29.90;;;;;;;2.86;100.00;101036.38;5113594;28;20047;-74
2021/10/29 03:38:59;;;;;;;54.92;31.60;;;;;;;2.69;100.00;101037.53;5113271;28;20043;-74
2021/10/29 03:41:32;;;;;;;53.80;30.33;;;;;;;2.67;100.00;101044.59;5113765;28;20042;-74
2021/10/29 03:44:05;;;;;;;52.27;31.03;;;;;;;2.75;100.00;101035.69;5113468;28;20126;-74
2021/10/29 03:46:34;;;;;;;51.08;31.10;;;;;;;2.69;100.00;101043.66;5113478;28;20544;-74
2021/10/29 03:49:13;;;;;;;59.70;30.45;;;;;;;2.64;100.00;101037.59;5113322;28;20476;-74
2021/10/29 03:51:44;;;;;;;51.75;29.88;;;;;;;2.63;100.00;101035.00;5113497;28;20059;-75
2021/10/29 03:54:15;;;;;;;55.75;29.83;;;;;;;2.65;100.00;101039.34;5113781;28;20040;-76
2021/10/29 03:56:53;;;;;;;48.25;29.42;;;;;;;2.56;100.00;101036.84;5113452;28;20544;-76
2021/10/29 03:59:21;;;;;;;51.08;29.63;;;;;;;2.52;100.00;101029.91;5113608;28;20035;-74
2021/10/29 04:01:49;;;;;;;51.58;29.30;;;;;;;2.59;100.00;101039.44;5112835;28;20040;-74
2021/10/29 04:04:18;;;;;;;49.05;30.15;;;;;;;2.47;100.00;101045.75;5113591;28;20039;-75
2021/10/29 04:06:47;;;;;;;49.90;30.27;;;;;;;2.38;100.00;101042.38;5113163;28;20459;-76
2021/10/29 04:09:16;;;;;;;49.58;30.25;;;;;;;2.48;100.00;101044.84;5112535;28;20051;-76
2021/10/29 04:11:45;;;;;;;52.25;30.30;;;;;;;2.42;100.00;101044.09;5112827;28;20067;-75
2021/10/29 04:14:16;;;;;;;53.20;30.42;;;;;;;2.34;100.00;101046.81;5113498;28;20044;-75
2021/10/29 04:16:44;;;;;;;50.67;29.73;;;;;;;2.51;100.00;101044.84;5112858;28;20039;-76
2021/10/29 04:19:16;;;;;;;53.38;29.38;;;;;;;2.55;100.00;101037.75;5113486;28;20047;-75
2021/10/29 04:21:44;;;;;;;61.30;32.10;;;;;;;2.39;100.00;101029.19;5112652;28;20071;-75
2021/10/29 04:24:13;;;;;;;51.15;30.58;;;;;;;2.57;100.00;101041.22;5113169;28;20058;-75
2021/10/29 04:26:42;;;;;;;50.28;28.63;;;;;;;2.51;100.00;101038.66;5113110;28;20043;-75
2021/10/29 04:29:14;;;;;;;53.33;30.50;;;;;;;2.44;100.00;101047.56;5113260;28;20032;-75
2021/10/29 04:31:49;;;;;;;54.88;31.75;;;;;;;2.39;100.00;101046.75;5112901;28;20047;-73
2021/10/29 04:34:18;;;;;;;48.42;29.52;;;;;;;2.37;100.00;101038.00;5112122;28;20043;-75
2021/10/29 04:36:47;;;;;;;51.53;29.58;;;;;;;2.45;100.00;101030.88;5112530;28;20040;-74
2021/10/29 04:39:15;;;;;;;50.35;29.08;;;;;;;2.56;100.00;101040.34;5112710;28;20473;-74
2021/10/29 04:41:47;;;;;;;49.08;28.95;;;;;;;2.58;100.00;101046.47;5112311;28;20044;-74
2021/10/29 04:44:17;;;;;;;47.17;29.25;;;;;;;2.55;100.00;101045.66;5114142;28;20134;-73
2021/10/29 04:46:46;;;;;;;52.92;29.52;;;;;;;2.58;100.00;101045.59;5117238;28;20055;-73
2021/10/29 04:49:17;;;;;;;48.75;28.67;;;;;;;2.53;100.00;101039.53;5117100;28;20055;-72
2021/10/29 04:51:45;;;;;;;49.10;29.02;;;;;;;2.59;100.00;101040.28;5116706;28;20047;-74
2021/10/29 04:54:14;;;;;;;51.50;31.02;;;;;;;2.46;100.00;101035.25;5116963;28;20036;-72
2021/10/29 04:56:43;;;;;;;51.13;29.15;;;;;;;2.46;100.00;101040.50;5117279;28;20047;-72
2021/10/29 04:59:14;;;;;;;49.80;29.23;;;;;;;2.50;100.00;101040.44;5117074;28;20031;-73
2021/10/29 05:01:45;;;;;;;49.17;27.92;;;;;;;2.50;100.00;101036.94;5116419;28;20040;-73
2021/10/29 05:04:14;;;;;;;50.20;27.95;;;;;;;2.49;100.00;101043.09;5116470;28;20248;-71
2021/10/29 05:06:43;;;;;;;49.08;27.80;;;;;;;2.63;100.00;101035.88;5116084;28;20039;-72
2021/10/29 05:09:14;;;;;;;49.83;27.83;;;;;;;2.69;100.00;101030.50;5116563;28;20044;-71
2021/10/29 05:11:43;;;;;;;50.45;28.05;;;;;;;2.67;100.00;101034.91;5116254;28;20127;-72
2021/10/29 05:14:12;;;;;;;49.03;28.45;;;;;;;2.82;100.00;101036.47;5116319;28;20093;-71
2021/10/29 05:16:40;;;;;;;48.67;28.52;;;;;;;2.71;100.00;101036.63;5116663;28;20404;-72
2021/10/29 05:19:10;;;;;;;50.67;28.67;;;;;;;2.66;100.00;101035.81;5116799;27;20538;-71
2021/10/29 05:21:38;;;;;;;48.47;28.63;;;;;;;2.71;100.00;101039.25;5116016;28;20043;-71
2021/10/29 05:24:07;;;;;;;47.15;27.05;;;;;;;2.74;100.00;101039.22;5116171;28;20036;-73
2021/10/29 05:26:36;;;;;;;49.78;29.02;;;;;;;2.70;100.00;101037.53;5116482;28;20039;-72
2021/10/29 05:29:05;;;;;;;54.72;31.38;;;;;;;2.54;100.00;101038.66;5116315;28;20070;-74
2021/10/29 05:31:33;;;;;;;50.05;29.15;;;;;;;2.65;100.00;101036.72;5115700;28;20045;-69
2021/10/29 05:34:02;;;;;;;46.90;27.88;;;;;;;2.61;100.00;101037.66;5115701;28;20104;-69
2021/10/29 05:36:31;;;;;;;50.65;29.60;;;;;;;2.64;100.00;101037.59;5116970;28;20442;-69
2021/10/29 05:39:00;;;;;;;50.88;29.55;;;;;;;2.66;100.00;101034.94;5115091;28;20122;-69
2021/10/29 05:41:28;;;;;;;56.67;29.38;;;;;;;2.64;100.00;101045.50;5115817;28;20118;-70
2021/10/29 05:43:56;;;;;;;50.20;29.50;;;;;;;2.60;100.00;101046.44;5114977;28;20488;-70
2021/10/29 05:46:30;;;;;;;51.00;30.02;;;;;;;2.53;100.00;101047.44;5115279;28;20043;-73
2021/10/29 05:48:59;;;;;;;52.83;28.67;;;;;;;2.67;100.00;101056.00;5115750;28;20050;-70
2021/10/29 05:51:28;;;;;;;51.55;28.52;;;;;;;2.77;100.00;101054.97;5115811;28;20156;-69
2021/10/29 05:54:12;;;;;;;49.75;28.50;;;;;;;2.77;100.00;101054.97;5115116;28;20046;-68
2021/10/29 05:56:41;;;;;;;49.10;28.67;;;;;;;2.85;100.00;101058.34;5115001;28;20085;-66
2021/10/29 05:59:09;;;;;;;50.03;28.77;;;;;;;2.78;100.00;101058.47;5115471;28;20047;-67
2021/10/29 06:01:41;;;;;;;47.60;29.88;;;;;;;2.74;100.00;101055.00;5115233;28;20047;-66
2021/10/29 06:04:09;;;;;;;49.10;29.00;;;;;;;2.70;100.00;101058.59;5115481;28;20400;-66
2021/10/29 06:06:38;;;;;;;51.67;29.40;;;;;;;2.86;100.00;101057.44;5115552;28;20438;-71
2021/10/29 06:09:07;;;;;;;50.70;29.23;;;;;;;2.96;100.00;101049.41;5115064;28;20050;-68
2021/10/29 06:11:36;;;;;;;50.33;29.08;;;;;;;2.92;100.00;101061.75;5115488;28;20422;-67
2021/10/29 06:14:05;;;;;;;50.03;29.52;;;;;;;2.93;100.00;101062.63;5114837;28;20043;-67
2021/10/29 06:16:33;;;;;;;50.90;30.75;;;;;;;2.92;100.00;101066.16;5115392;28;20092;-68
2021/10/29 06:19:01;;;;;;;51.50;30.10;;;;;;;2.97;100.00;101064.31;5115016;28;20071;-70
2021/10/29 06:21:35;;;;;;;51.22;29.95;;;;;;;2.93;100.00;101066.13;5115250;28;20047;-68
2021/10/29 06:24:06;;;;;;;58.15;29.75;;;;;;;2.97;100.00;101059.03;5114725;28;20054;-69
2021/10/29 06:26:43;;;;;;;53.55;31.38;;;;;;;2.96;100.00;101068.72;5112970;28;20040;-69
2021/10/29 06:29:12;;;;;;;53.58;29.88;;;;;;;3.11;100.00;101067.59;5112513;28;20040;-68
2021/10/29 06:31:41;;;;;;;56.00;30.40;;;;;;;3.10;100.00;101069.38;5114691;28;20115;-70
2021/10/29 06:34:10;;;;;;;53.38;30.73;;;;;;;3.28;100.00;101064.66;5111730;28;20031;-70
2021/10/29 06:36:39;;;;;;;55.47;31.20;;;;;;;3.26;100.00;101067.34;5114297;28;20043;-70
2021/10/29 06:39:08;;;;;;;56.25;30.48;;;;;;;3.41;100.00;101077.63;5113445;28;20039;-71
2021/10/29 06:41:38;;;;;;;52.47;29.85;;;;;;;3.35;100.00;101069.81;5111929;28;20122;-71
2021/10/29 06:44:17;;;;;;;55.47;32.03;;;;;;;3.50;100.00;101066.03;5114275;28;20619;-71
2021/10/29 06:46:49;;;;;;;55.15;29.17;;;;;;;3.46;100.00;101077.53;5114635;28;20484;-71
2021/10/29 06:49:21;;;;;;;53.15;30.02;;;;;;;3.60;100.00;101072.88;5114383;28;20051;-70
2021/10/29 07:00:22;;;;;;;54.25;30.48;;;;;;;3.75;100.00;101069.06;5096336;28;20048;-69
2021/10/29 07:41:30;;;;;;;53.13;31.35;;;;;;;5.31;100.00;101070.91;5093690;28;20044;-69
2021/10/29 07:44:01;;;;;;;52.13;30.90;;;;;;;5.50;100.00;101064.22;5093065;28;20350;-69
2021/10/29 07:46:30;;;;;;;55.40;32.92;;;;;;;5.65;100.00;101063.78;5093708;28;20094;-69
2021/10/29 07:48:59;;;;;;;49.33;30.92;;;;;;;5.63;100.00;101070.91;5092791;28;20051;-69
2021/10/29 07:51:27;;;;;;;52.67;31.38;;;;;;;5.78;100.00;101074.91;5093302;28;20051;-69
2021/10/29 07:53:56;;;;;;;53.28;30.92;;;;;;;5.84;100.00;101073.88;5093244;28;20044;-69
2021/10/29 07:56:24;;;;;;;50.47;31.20;;;;;;;5.97;100.00;101070.00;5093156;28;20086;-69
2021/10/29 07:59:12;;;;;;;49.42;30.38;;;;;;;6.13;100.00;101073.97;5092829;28;20046;-69
2021/10/29 08:01:41;;;;;;;53.60;30.70;;;;;;;6.06;100.00;101069.75;5091955;28;20090;-69
2021/10/29 08:04:11;;;;;;;53.28;30.88;;;;;;;6.08;100.00;101073.25;5093257;28;20040;-69
2021/10/29 08:06:39;;;;;;;51.65;31.27;;;;;;;6.22;100.00;101073.69;5093218;28;20048;-69
2021/10/29 08:09:07;;;;;;;55.28;31.60;;;;;;;6.19;100.00;101075.59;5092606;28;20048;-69
2021/10/29 08:11:36;;;;;;;50.08;30.55;;;;;;;6.35;100.00;101071.53;5093113;28;20464;-69
2021/10/29 08:14:04;;;;;;;50.95;30.05;;;;;;;6.38;100.00;101071.47;5092731;28;20044;-69
2021/10/29 08:16:33;;;;;;;47.45;30.33;;;;;;;6.67;100.00;101075.03;5093188;28;20505;-69
2021/10/29 08:19:03;;;;;;;49.28;29.80;;;;;;;6.61;100.00;101070.75;5095779;28;20036;-69
2021/10/29 08:21:31;;;;;;;52.20;30.50;;;;;;;6.67;100.00;101075.88;5097307;28;20055;-69
2021/10/29 08:23:59;;;;;;;51.38;31.27;;;;;;;6.74;100.00;101065.94;5096807;28;20040;-69
2021/10/29 08:26:27;;;;;;;51.50;30.95;;;;;;;6.91;100.00;101063.63;5097195;28;20490;-69
2021/10/29 08:28:55;;;;;;;48.65;29.88;;;;;;;7.03;100.00;101059.69;5096947;28;20043;-69
2021/10/29 08:31:24;;;;;;;55.88;30.80;;;;;;;6.97;100.00;101066.09;5096479;28;20044;-69
2021/10/29 08:33:52;;;;;;;52.00;30.77;;;;;;;7.11;100.00;101063.84;5096879;28;20051;-69
2021/10/29 08:36:22;;;;;;;55.03;30.23;;;;;;;7.11;100.00;101061.19;5096492;28;20079;-69
2021/10/29 08:38:50;;;;;;;49.72;30.15;;;;;;;7.07;100.00;101059.56;5096967;28;20044;-69
2021/10/29 08:41:29;;;;;;;51.47;30.25;;;;;;;7.28;100.00;101062.41;5097148;28;20071;-69
2021/10/29 08:43:57;;;;;;;49.60;30.25;;;;;;;7.31;100.00;101060.53;5096248;28;20047;-69
2021/10/29 08:46:28;;;;;;;50.38;31.55;;;;;;;7.42;100.00;101053.06;5096589;28;20404;-69
2021/10/29 08:48:58;;;;;;;53.05;30.88;;;;;;;7.39;100.00;101053.16;5096712;28;20071;-73
2021/10/29 08:51:29;;;;;;;56.83;31.02;;;;;;;7.49;100.00;101053.72;5096606;28;20044;-69
2021/10/29 08:53:57;;;;;;;51.35;30.38;;;;;;;7.47;100.00;101055.56;5095569;28;20409;-73
2021/10/29 08:56:28;;;;;;;59.03;31.00;;;;;;;7.71;100.00;101049.38;5096660;28;20051;-69
2021/10/29 08:59:04;;;;;;;50.60;29.27;;;;;;;7.99;100.00;101043.94;5096565;28;20052;-69
2021/10/29 09:01:47;;;;;;;52.15;31.08;;;;;;;7.88;100.00;101039.94;5096473;28;20119;-69
2021/10/29 09:04:18;;;;;;;57.10;30.75;;;;;;;8.15;99.25;101043.38;5096086;28;20040;-69
2021/10/29 09:06:55;;;;;;;52.40;30.27;;;;;;;8.42;97.31;101039.69;5096414;28;20076;-69
2021/10/29 09:09:42;;;;;;;47.35;28.65;;;;;;;8.29;97.87;101041.91;5096186;28;20051;-69
2021/10/29 09:31:21;;;;;;;49.13;29.58;;;;;;;8.61;95.90;101037.19;5096275;28;20047;-69
2021/10/29 09:31:59;;;;;;;50.15;30.13;;;;;;;9.20;93.23;101025.03;5095937;28;20110;-69
2021/10/29 09:34:27;;;;;;;47.47;28.73;;;;;;;9.21;92.58;101027.63;5095758;28;20052;-69
2021/10/29 09:36:56;;;;;;;51.83;31.30;;;;;;;9.16;92.86;101025.16;5095436;28;20562;-69
2021/10/29 09:39:27;;;;;;;53.30;29.95;;;;;;;9.53;91.01;101015.59;5095602;28;20123;-69
2021/10/29 09:42:03;;;;;;;45.63;28.90;;;;;;;9.56;90.53;101018.13;5095632;28;20044;-69
2021/10/29 09:44:44;;;;;;;48.40;28.55;;;;;;;9.41;91.15;101013.47;5095469;28;20056;-69
2021/10/29 09:47:16;;;;;;;48.42;29.25;;;;;;;9.45;91.86;101026.56;5095471;28;20432;-69
2021/10/29 09:49:53;;;;;;;47.00;29.00;;;;;;;9.30;92.10;101021.06;5095520;28;20499;-69
2021/10/29 09:55:18;;;;;;;50.55;27.95;;;;;;;9.42;91.59;101009.88;5095365;28;20094;-69
2021/10/29 09:57:48;;;;;;;41.35;26.73;;;;;;;9.63;90.40;100998.25;5094141;28;20054;-69
2021/10/29 10:00:17;;;;;;;46.83;28.10;;;;;;;9.82;88.84;100998.31;5094835;28;20101;-69
2021/10/29 10:02:46;;;;;;;45.00;29.08;;;;;;;9.74;89.28;101001.31;5095344;28;20068;-69
2021/10/29 10:05:16;;;;;;;49.13;27.35;;;;;;;9.79;89.36;100998.44;5094583;28;20051;-69
2021/10/29 10:07:47;;;;;;;41.25;27.35;;;;;;;10.03;87.48;100993.78;5093913;28;20044;-69
2021/10/29 10:10:16;;;;;;;45.80;27.67;;;;;;;9.90;87.82;100989.97;5094900;28;20481;-69
2021/10/29 10:12:47;;;;;;;44.25;26.83;;;;;;;10.15;86.20;100992.38;5095288;28;20096;-69
2021/10/29 10:15:16;;;;;;;40.40;24.52;;;;;;;10.47;84.19;100980.22;5095133;28;20046;-69
2021/10/29 10:17:45;;;;;;;38.95;24.35;;;;;;;10.84;81.62;100985.47;5095169;28;20127;-69
2021/10/29 10:20:13;;;;;;;39.75;22.27;;;;;;;10.84;80.53;100985.47;5094759;28;20093;-69
2021/10/29 10:22:47;;;;;;;35.83;21.95;;;;;;;10.70;81.39;100977.28;5095024;28;20036;-69
2021/10/29 10:25:32;;;;;;;41.25;22.73;;;;;;;10.68;81.46;100976.50;5094693;28;20040;-69
2021/10/29 10:28:31;;;;;;;41.97;22.80;;;;;;;10.58;81.77;100968.09;5094574;28;20485;-69
2021/10/29 10:42:42;;;;;;;31.98;19.15;;;;;;;11.23;77.36;100951.50;5094388;28;20040;-69
2021/10/29 10:45:17;;;;;;;29.42;17.40;;;;;;;11.38;76.53;100943.53;5094341;28;20056;-69
2021/10/29 10:47:50;;;;;;;29.63;18.30;;;;;;;11.50;75.93;100935.84;5094527;28;20051;-69
2021/10/29 10:50:21;;;;;;;30.40;19.00;;;;;;;11.24;76.75;100935.41;5092905;28;20574;-69
2021/10/29 10:53:36;;;;;;;27.58;17.88;;;;;;;11.07;77.61;100930.06;5094333;28;20039;-69
2021/10/29 10:56:28;;;;;;;29.17;17.88;;;;;;;10.94;77.46;100927.16;5094076;28;20046;-69
2021/10/29 10:59:29;;;;;;;29.85;17.83;;;;;;;10.94;77.21;100920.97;5093979;28;20089;-68
2021/10/29 11:05:27;;;;;;;25.20;16.27;;;;;;;10.95;76.72;100926.22;5068379;28;20060;-68
2021/10/29 11:10:42;;;;;;;25.50;15.93;;;;;;;11.68;73.50;100913.50;5093695;28;20043;-69
2021/10/29 11:13:11;;;;;;;23.73;14.93;;;;;;;11.93;71.81;100921.03;5093678;28;20040;-69
2021/10/29 11:15:41;;;;;;;25.83;15.32;;;;;;;11.98;71.44;100910.97;5094088;28;20090;-69
2021/10/29 11:18:39;;;;;;;27.48;16.45;;;;;;;12.10;69.88;100899.59;5093520;28;20044;-69
2021/10/29 11:21:12;;;;;;;22.17;13.10;;;;;;;12.34;66.91;100905.34;5093730;28;20089;-74
2021/10/29 11:23:50;;;;;;;27.55;15.40;;;;;;;12.16;68.27;100903.72;5093966;28;20044;-69
2021/10/29 11:26:28;;;;;;;26.00;15.75;;;;;;;11.93;70.16;100896.97;5093492;28;20439;-70
2021/10/29 11:28:58;;;;;;;27.15;14.30;;;;;;;11.99;68.49;100897.50;5093661;28;20052;-69
2021/10/29 11:31:32;;;;;;;24.95;15.45;;;;;;;11.95;69.61;100893.28;5093539;28;20040;-70
2021/10/29 11:34:01;;;;;;;;;;;;;;;11.87;70.11;100894.63;5094186;28;20044;-69
2021/10/29 11:36:32;;;;;;;23.48;13.95;;;;;;;11.74;70.10;100894.44;5093338;28;20015;-70
2021/10/29 11:39:01;;;;;;;26.63;15.75;;;;;;;11.83;69.70;100885.06;5093270;28;20040;-70
2021/10/29 11:41:32;;;;;;;24.48;13.65;;;;;;;12.38;66.55;100882.84;5093228;28;20127;-70
2021/10/29 11:44:02;;;;;;;23.67;13.73;;;;;;;12.51;66.51;100872.28;5092003;28;20052;-70
2021/10/29 11:46:32;;;;;;;26.52;14.65;;;;;;;12.25;66.69;100876.44;5093417;28;20036;-70
2021/10/29 11:49:04;;;;;;;24.45;13.82;;;;;;;12.75;64.56;100867.31;5093647;28;20044;-69
2021/10/29 11:51:34;;;;;;;23.25;14.20;;;;;;;12.88;62.37;100860.25;5093268;28;20036;-69
2021/10/29 11:54:12;;;;;;;22.63;12.70;;;;;;;12.98;62.20;100861.41;5092945;28;20044;-69
2021/10/29 11:56:45;;;;;;;21.30;13.32;;;;;;;12.80;62.72;100857.16;5093498;28;20050;-69
2021/10/29 11:59:30;;;;;;;27.05;13.45;;;;;;;12.60;62.83;100850.31;5093015;28;20039;-69
2021/10/29 12:07:36;;;;;;;22.27;11.93;;;;;;;13.00;59.97;100832.72;5092529;28;20040;-69
2021/10/29 12:10:07;;;;;;;20.08;12.18;;;;;;;13.28;57.29;100836.41;5093141;28;20048;-69
2021/10/29 12:12:38;;;;;;;22.00;12.90;;;;;;;13.30;56.64;100835.38;5093353;28;20044;-69
2021/10/29 12:15:08;;;;;;;21.85;13.07;;;;;;;13.31;56.28;100833.53;5093301;28;20043;-69
2021/10/29 12:17:51;;;;;;;28.38;13.65;;;;;;;13.51;54.99;100833.19;5093308;28;20036;-69
2021/10/29 12:20:24;;;;;;;26.52;13.65;;;;;;;13.37;54.42;100825.13;5092671;28;20119;-69
2021/10/29 12:22:58;;;;;;;23.17;13.48;;;;;;;13.62;49.94;100821.78;5092780;28;20044;-69
2021/10/29 12:25:31;;;;;;;23.25;12.98;;;;;;;13.69;50.27;100821.25;5092764;28;20047;-69
2021/10/29 12:28:06;;;;;;;23.02;13.65;;;;;;;13.58;49.90;100823.78;5093106;28;20048;-69
2021/10/29 12:30:38;;;;;;;22.70;13.25;;;;;;;13.50;49.46;100812.66;5092789;28;20392;-69
2021/10/29 12:51:54;;;;;;;27.67;15.70;;;;;;;13.02;52.43;100803.16;5052135;28;20056;-69
2021/10/29 13:01:37;;;;;;;25.67;15.52;;;;;;;13.20;51.81;100790.50;5092543;28;20122;-69
2021/10/29 13:04:11;;;;;;;26.92;15.63;;;;;;;13.48;51.05;100782.44;5092657;28;20101;-69
2021/10/29 13:06:46;;;;;;;26.27;16.75;;;;;;;13.44;51.23;100778.25;5095804;28;20044;-69
2021/10/29 13:09:16;;;;;;;29.50;15.63;;;;;;;13.43;51.24;100776.53;5096366;28;20442;-69
2021/10/29 13:11:52;;;;;;;26.35;16.63;;;;;;;13.40;51.41;100764.16;5096405;28;20090;-69
2021/10/29 13:14:25;;;;;;;27.50;16.05;;;;;;;13.56;51.03;100771.22;5095824;28;20127;-69
2021/10/29 13:16:56;;;;;;;25.95;16.48;;;;;;;13.64;50.89;100764.41;5096264;28;20055;-69
2021/10/29 13:19:45;;;;;;;27.85;16.45;;;;;;;13.65;50.47;100763.47;5095855;28;20542;-69
2021/10/29 13:28:13;;;;;;;28.23;15.50;;;;;;;13.26;51.14;100755.28;5095804;28;20042;-69